CW9723 Weather Reports


time (UTC)temp
C
wind
direction
speed
KPH
gust
KPH
rain 1hr
cm
rain 24hr
cm
rain mn
cm
humidity
%
barometer
mb
20260504050328 11 209 3.2 9.7 0.00 0.05 0.00 57 1008.4
20260504050317 11 237 4.8 11.3 0.00 0.05 0.00 56 1008.4
20260504045317 11 243 1.6 4.8 0.00 0.05 0.00 58 1008.4
20260504044815 11 255 3.2 4.8 0.00 0.05 0.00 58 1008.4
20260504044314 11 208 3.2 4.8 0.00 0.05 0.00 58 1008.4
20260504043814 11 200 3.2 8.0 0.00 0.05 0.00 58 1008.4
20260504043538 11 196 3.2 8.0 0.00 0.05 0.00 59 1008.4
20260504042814 11 0 1.6 4.8 0.00 0.05 0.00 60 1008.5
20260504042534 11 216 1.6 4.8 0.00 0.05 0.00 60 1008.5
20260504041815 11 199 3.2 6.4 0.00 0.05 0.00 59 1008.5
20260504041315 11 188 3.2 6.4 0.00 0.05 0.00 57 1008.5
20260504041247 12 173 3.2 6.4 0.00 0.05 0.00 58 1008.5
20260504040528 12 195 3.2 6.4 0.00 0.05 0.00 58 1008.4
20260504040024 12 211 3.2 8.0 0.00 0.05 0.05 58 1008.5
20260504035909 12 231 3.2 6.4 0.00 0.05 0.05 58 1008.4
20260504034811 12 215 3.2 9.7 0.00 0.05 0.05 57 1008.4
20260504034311 12 169 3.2 9.7 0.00 0.05 0.05 57 1008.5
20260504033811 12 210 3.2 8.0 0.00 0.05 0.05 56 1008.4
20260504033311 12 270 3.2 9.7 0.00 0.05 0.05 56 1008.4
20260504032811 12 190 4.8 12.9 0.00 0.05 0.05 56 1008.4
20260504032311 12 251 4.8 12.9 0.00 0.05 0.05 55 1008.5
20260504032030 12 254 4.8 9.7 0.00 0.05 0.05 55 1008.5
20260504031546 12 277 4.8 11.3 0.00 0.05 0.05 55 1008.6
20260504030810 12 248 4.8 11.3 0.00 0.05 0.05 55 1008.6
20260504030311 12 251 4.8 11.3 0.00 0.05 0.05 56 1008.7
20260504030041 12 217 4.8 11.3 0.00 0.05 0.05 56 1008.7
20260504025311 12 254 4.8 9.7 0.00 0.05 0.05 56 1008.8
20260504024811 12 265 4.8 9.7 0.00 0.05 0.05 56 1008.9
20260504024311 12 248 4.8 11.3 0.00 0.05 0.05 55 1008.9
20260504023812 12 252 4.8 11.3 0.00 0.05 0.05 55 1008.9
20260504023303 12 238 4.8 11.3 0.00 0.05 0.05 55 1008.9
20260504022803 13 263 4.8 11.3 0.00 0.05 0.05 54 1008.9
20260504022742 13 224 4.8 12.9 0.00 0.05 0.05 53 1008.8
20260504022025 13 260 4.8 12.9 0.00 0.05 0.05 53 1008.8
20260504021303 13 293 6.4 17.7 0.00 0.05 0.05 53 1008.9
20260504020801 13 345 8.0 19.3 0.00 0.05 0.05 53 1009.1
20260504020536 12 256 6.4 19.3 0.00 0.05 0.05 53 1009.1
20260504015759 12 33 6.4 14.5 0.00 0.05 0.05 55 1009.2
20260504015753 12 267 6.4 22.5 0.00 0.05 0.05 54 1009.3
20260504014800 12 267 9.7 22.5 0.00 0.05 0.05 54 1009.3
20260504014300 12 278 9.7 22.5 0.00 0.05 0.05 54 1009.3
20260504013800 12 310 8.0 17.7 0.00 0.05 0.05 54 1009.4
20260504013300 12 315 6.4 16.1 0.00 0.05 0.05 55 1009.4
20260504013025 12 43 6.4 16.1 0.00 0.05 0.05 55 1009.5
20260504012300 12 24 6.4 16.1 0.00 0.05 0.05 55 1009.5
20260504011800 12 305 6.4 17.7 0.00 0.05 0.05 53 1009.5
20260504011301 13 243 6.4 17.7 0.03 0.05 0.05 52 1009.4
20260504010812 13 332 6.4 17.7 0.03 0.05 0.05 52 1009.4
20260504010520 13 295 8.0 20.9 0.03 0.05 0.05 51 1009.2
20260504005759 13 280 9.7 20.9 0.03 0.05 0.05 50 1009.1
20260504005259 13 288 8.0 19.3 0.05 0.05 0.05 50 1009.0
20260504005029 13 293 8.0 19.3 0.05 0.05 0.05 50 1008.9
20260504004529 13 292 8.0 19.3 0.05 0.05 0.05 51 1008.8
20260504003758 13 274 8.0 19.3 0.05 0.05 0.05 51 1008.8
20260504003258 13 253 8.0 19.3 0.05 0.05 0.05 51 1008.9
20260504002758 13 274 11.3 20.9 0.05 0.05 0.05 51 1008.8
20260504002258 13 280 12.9 30.6 0.05 0.05 0.05 50 1009.0
20260504001758 13 271 12.9 30.6 0.05 0.05 0.05 47 1009.0
20260504001312 13 294 9.7 29.0 0.03 0.03 0.03 47 1009.0
20260504000758 13 330 11.3 29.0 0.03 0.03 0.03 47 1008.8
20260504000258 13 291 14.5 40.2 0.03 0.03 0.03 46 1008.6
20260503235756 13 350 14.5 40.2 0.03 0.03 0.03 46 1008.6
20260503235257 14 287 12.9 30.6 0.00 0.00 0.00 45 1008.6
20260503234758 14 283 11.3 24.1 0.00 0.00 0.00 44 1008.5
20260503234257 14 279 9.7 20.9 0.00 0.00 0.00 42 1008.4
20260503234026 14 315 6.4 14.5 0.00 0.00 0.00 41 1008.4
20260503233256 14 304 4.8 14.5 0.00 0.00 0.00 42 1008.3
20260503232757 14 333 6.4 12.9 0.00 0.00 0.00 43 1008.3
20260503232256 14 258 6.4 20.9 0.00 0.00 0.00 43 1008.2
20260503231756 14 227 8.0 25.7 0.00 0.00 0.00 43 1008.1
20260503231530 14 297 11.3 25.7 0.00 0.00 0.00 41 1008.1
20260503230757 14 287 9.7 25.7 0.00 0.00 0.00 41 1008.4
20260503230254 14 240 8.0 17.7 0.00 0.00 0.00 41 1008.3
20260503225757 14 317 9.7 19.3 0.00 0.00 0.00 40 1008.3
20260503225256 14 280 9.7 19.3 0.00 0.00 0.00 40 1008.3
20260503224756 14 236 8.0 19.3 0.00 0.00 0.00 41 1008.4
20260503224255 14 276 8.0 17.7 0.00 0.00 0.00 42 1008.5
20260503223753 14 8 6.4 17.7 0.00 0.00 0.00 43 1008.6
20260503223254 14 283 4.8 16.1 0.00 0.00 0.00 44 1008.6
20260503222753 14 344 4.8 16.1 0.00 0.00 0.00 43 1008.5
20260503222254 14 299 4.8 12.9 0.00 0.00 0.00 43 1008.4
20260503221753 14 306 4.8 11.3 0.00 0.00 0.00 41 1008.3
20260503221254 14 287 4.8 14.5 0.00 0.00 0.00 43 1008.2
20260503220754 14 270 4.8 14.5 0.00 0.00 0.00 41 1008.2
20260503220256 14 251 4.8 14.5 0.00 0.00 0.00 41 1008.3
20260503215754 14 325 3.2 9.7 0.00 0.00 0.00 41 1008.3
20260503215253 14 275 3.2 8.0 0.00 0.00 0.00 42 1008.3
20260503214753 14 308 3.2 12.9 0.00 0.00 0.00 41 1008.3
20260503214253 14 50 4.8 16.1 0.00 0.00 0.00 41 1008.3
20260503214011 14 353 4.8 16.1 0.00 0.00 0.00 42 1008.4
20260503213251 14 305 4.8 16.1 0.00 0.00 0.00 41 1008.3
20260503212750 14 316 6.4 14.5 0.00 0.00 0.00 41 1008.3
20260503212250 14 291 6.4 14.5 0.00 0.00 0.00 41 1008.3
20260503211750 14 264 6.4 17.7 0.00 0.00 0.00 41 1008.4
20260503211251 14 326 6.4 17.7 0.00 0.00 0.00 42 1008.4
20260503210751 14 280 6.4 14.5 0.00 0.00 0.00 41 1008.5
20260503210733 13 260 6.4 14.5 0.00 0.00 0.00 42 1008.4
20260503205746 13 307 6.4 12.9 0.00 0.00 0.00 41 1008.5
20260503205244 13 240 4.8 22.5 0.00 0.00 0.00 42 1008.4
20260503204744 13 285 6.4 22.5 0.00 0.00 0.00 41 1008.6
20260503204242 13 334 8.0 22.5 0.00 0.00 0.00 42 1008.7
20260503203742 13 6 8.0 22.5 0.00 0.00 0.00 43 1008.7
20260503203255 13 186 8.0 17.7 0.00 0.00 0.00 43 1008.7
20260503202755 13 314 8.0 19.3 0.00 0.00 0.00 43 1008.8
20260503202510 13 287 8.0 20.9 0.00 0.00 0.00 43 1008.9
20260503201742 13 308 8.0 20.9 0.00 0.00 0.00 44 1008.9
20260503201243 13 329 6.4 19.3 0.00 0.00 0.00 43 1009.0
20260503200742 13 297 8.0 17.7 0.00 0.00 0.00 43 1009.2
20260503200243 13 344 6.4 17.7 0.00 0.00 0.00 42 1009.2
20260503195741 13 324 6.4 16.1 0.00 0.00 0.00 43 1009.3
20260503195508 13 245 6.4 16.1 0.00 0.00 0.00 41 1009.4
20260503194737 13 42 4.8 12.9 0.00 0.00 0.00 41 1009.4
20260503194237 12 254 4.8 16.1 0.00 0.00 0.00 43 1009.5
20260503193736 12 161 8.0 20.9 0.00 0.00 0.00 45 1009.6
20260503193505 12 308 8.0 20.9 0.00 0.00 0.00 42 1009.6
20260503192735 13 306 6.4 14.5 0.00 0.00 0.00 43 1009.7
20260503192234 13 324 8.0 20.9 0.00 0.00 0.00 43 1009.8
20260503191735 12 286 8.0 20.9 0.00 0.00 0.00 43 1009.9
20260503191234 12 259 9.7 22.5 0.00 0.00 0.00 43 1009.8
20260503190735 12 290 9.7 22.5 0.00 0.00 0.00 44 1010.1
20260503190235 12 289 8.0 19.3 0.00 0.00 0.00 44 1010.1
20260503185734 12 343 8.0 19.3 0.00 0.00 0.00 45 1009.9
20260503185232 12 289 9.7 20.9 0.00 0.00 0.00 46 1010.0
20260503184730 12 330 9.7 24.1 0.00 0.00 0.00 45 1010.0
20260503184450 12 256 9.7 24.1 0.00 0.00 0.00 44 1010.0
20260503183730 12 285 9.7 22.5 0.00 0.00 0.00 44 1010.0
20260503183450 12 294 8.0 20.9 0.00 0.00 0.00 43 1009.9
20260503182731 12 253 8.0 17.7 0.00 0.00 0.00 45 1010.1
20260503182230 12 10 9.7 20.9 0.00 0.00 0.00 44 1010.1
20260503181731 12 286 9.7 20.9 0.00 0.00 0.00 47 1010.2
20260503181230 12 280 9.7 20.9 0.00 0.00 0.00 46 1010.2
20260503180729 12 288 9.7 20.9 0.00 0.00 0.00 46 1010.4
20260503180230 11 232 9.7 20.9 0.00 0.00 0.00 47 1010.2
20260503175729 12 280 9.7 20.9 0.00 0.00 0.00 46 1010.3
20260503175230 12 263 9.7 19.3 0.00 0.00 0.00 44 1010.4
20260503174731 12 221 9.7 20.9 0.00 0.00 0.00 44 1010.3
20260503174227 12 317 9.7 20.9 0.00 0.00 0.00 43 1010.5
20260503173728 12 273 6.4 19.3 0.00 0.00 0.00 44 1010.5
20260503173227 12 343 6.4 19.3 0.00 0.00 0.00 43 1010.6
20260503172728 11 258 6.4 14.5 0.00 0.00 0.00 48 1010.7
20260503172227 11 335 8.0 19.3 0.00 0.00 0.00 47 1010.7
20260503171728 11 353 6.4 19.3 0.00 0.00 0.00 46 1010.7
20260503171227 12 335 6.4 16.1 0.00 0.00 0.00 47 1010.8
20260503170741 12 309 6.4 16.1 0.00 0.00 0.00 45 1010.9
20260503170227 12 285 6.4 16.1 0.00 0.00 0.00 43 1010.9
20260503150716 9 333 6.4 22.5 0.00 0.00 0.00 46 1012.5
20260503150229 9 6 8.0 22.5 0.00 0.00 0.00 47 1012.6
20260503140213 7 337 8.0 22.5 0.00 0.00 0.00 52 1013.0
20260503131219 6 331 6.4 16.1 0.00 0.00 0.00 62 1013.2
20260503130706 7 280 6.4 16.1 0.00 0.00 0.00 63 1013.2
20260503130206 6 271 6.4 14.5 0.00 0.00 0.00 64 1013.3
20260503120204 5 315 6.4 16.1 0.00 0.00 0.00 74 1013.3
20260503110658 3 17 3.2 9.7 0.00 0.00 0.00 84 1012.9
20260503110159 3 303 3.2 9.7 0.00 0.00 0.00 84 1012.8
20260503100158 3 281 4.8 11.3 0.00 0.00 0.00 87 1012.5
20260503090156 3 271 4.8 11.3 0.00 0.00 0.00 85 1012.5
20260503081148 4 293 6.4 14.5 0.00 0.00 0.00 80 1012.6
20260503080648 4 331 6.4 12.9 0.00 0.00 0.00 79 1012.6
20260503080149 4 328 4.8 12.9 0.00 0.00 0.00 79 1012.6
20260503072649 5 282 4.8 11.3 0.00 0.00 0.00 79 1012.4
20260503072148 5 272 4.8 12.9 0.00 0.00 0.00 79 1012.5
20260503071647 5 339 4.8 12.9 0.00 0.00 0.00 79 1012.5
20260503071145 5 317 4.8 11.3 0.00 0.00 0.00 79 1012.5
20260503070646 5 334 4.8 12.9 0.00 0.00 0.00 79 1012.5
20260503070146 5 328 4.8 12.9 0.00 0.00 0.00 79 1012.5